createdAt,value
2022-08-24T00:01:47.361Z,1.67
2022-08-24T00:04:16.218Z,1.80
2022-08-24T00:06:44.588Z,1.77
2022-08-24T00:09:11.203Z,1.98
2022-08-24T00:11:37.789Z,2.05
2022-08-24T00:14:04.505Z,2.30
2022-08-24T00:16:31.207Z,2.08
2022-08-24T00:18:57.957Z,2.42
2022-08-24T00:21:24.549Z,2.08
2022-08-24T00:23:51.082Z,1.65
2022-08-24T00:26:19.657Z,2.35
2022-08-24T00:28:55.566Z,1.90
2022-08-24T00:31:22.243Z,2.03
2022-08-24T00:33:49.021Z,1.60
2022-08-24T00:36:15.718Z,1.77
2022-08-24T00:38:42.381Z,2.15
2022-08-24T00:41:09.019Z,1.85
2022-08-24T00:43:35.972Z,2.00
2022-08-24T00:46:02.575Z,1.70
2022-08-24T00:48:33.620Z,1.70
2022-08-24T00:51:05.073Z,2.38
2022-08-24T00:53:36.179Z,2.67
2022-08-24T00:56:09.380Z,2.20
2022-08-24T00:58:41.992Z,1.75
2022-08-24T01:01:09.576Z,2.10
2022-08-24T01:06:25.190Z,1.77
2022-08-24T01:08:56.610Z,1.83
2022-08-24T01:11:27.602Z,1.63
2022-08-24T01:14:02.065Z,1.52
2022-08-24T01:16:29.411Z,2.10
2022-08-24T01:18:56.321Z,1.60
2022-08-24T01:21:31.455Z,2.10
2022-08-24T01:24:03.808Z,1.88
2022-08-24T01:26:38.486Z,1.67
2022-08-24T01:29:08.540Z,2.17
2022-08-24T01:31:36.301Z,2.10
2022-08-24T01:34:05.102Z,1.65
2022-08-24T01:36:34.119Z,1.80
2022-08-24T01:39:11.185Z,2.38
2022-08-24T01:41:37.796Z,1.90
2022-08-24T01:44:05.167Z,2.17
2022-08-24T01:46:31.916Z,2.20
2022-08-24T01:48:59.226Z,2.10
2022-08-24T01:51:29.959Z,1.80
2022-08-24T01:53:56.668Z,2.10
2022-08-24T01:56:23.353Z,1.83
2022-08-24T01:58:49.956Z,1.70
2022-08-24T02:01:18.601Z,2.17
2022-08-24T02:03:51.820Z,1.60
2022-08-24T02:06:19.803Z,1.90
2022-08-24T02:08:46.856Z,1.80
2022-08-24T02:11:15.300Z,2.10
2022-08-24T02:13:42.580Z,1.90
2022-08-24T02:16:09.290Z,2.40
2022-08-24T02:18:37.993Z,2.13
2022-08-24T02:21:07.847Z,1.77
2022-08-24T02:23:35.477Z,1.60
2022-08-24T02:26:07.400Z,1.67
2022-08-24T02:28:34.896Z,1.65
2022-08-24T02:31:02.224Z,1.60
2022-08-24T02:33:30.700Z,2.38
2022-08-24T02:35:57.437Z,1.60
2022-08-24T02:38:24.213Z,2.10
2022-08-24T02:40:50.957Z,1.58
2022-08-24T02:43:17.731Z,1.90
2022-08-24T02:45:50.206Z,2.38
2022-08-24T02:48:20.025Z,2.00
2022-08-24T02:50:49.193Z,1.95
2022-08-24T02:53:18.598Z,1.98
2022-08-24T02:55:45.686Z,2.33
2022-08-24T02:58:15.810Z,2.30
2022-08-24T03:00:46.088Z,2.08
2022-08-24T03:03:14.539Z,2.47
2022-08-24T03:05:41.306Z,1.83
2022-08-24T03:08:07.961Z,1.90
2022-08-24T03:10:35.272Z,2.03
2022-08-24T03:13:03.898Z,2.00
2022-08-24T03:15:30.897Z,2.10
2022-08-24T03:17:57.665Z,1.80
2022-08-24T03:20:24.825Z,2.33
2022-08-24T03:22:51.987Z,1.55
2022-08-24T03:25:21.939Z,1.90
2022-08-24T03:27:48.527Z,2.05
2022-08-24T03:30:18.222Z,2.45
2022-08-24T03:32:48.613Z,2.17
2022-08-24T03:35:17.166Z,1.83
2022-08-24T03:37:43.912Z,1.92
2022-08-24T03:40:22.249Z,1.90
2022-08-24T03:42:50.305Z,2.10
2022-08-24T03:45:18.486Z,2.20
2022-08-24T03:47:45.208Z,2.08
2022-08-24T03:50:12.649Z,2.15
2022-08-24T03:52:39.503Z,2.33
2022-08-24T03:55:07.347Z,1.90
2022-08-24T03:57:34.389Z,2.25
2022-08-24T04:00:02.132Z,2.42
2022-08-24T04:02:33.017Z,2.00
2022-08-24T04:05:00.399Z,1.73
2022-08-24T04:07:27.136Z,2.13
2022-08-24T04:09:54.027Z,2.10
2022-08-24T04:12:23.671Z,1.88
2022-08-24T04:14:53.627Z,2.47
2022-08-24T04:17:20.158Z,2.20
2022-08-24T04:19:48.192Z,2.00
2022-08-24T04:22:14.878Z,1.92
2022-08-24T04:24:41.500Z,2.28
2022-08-24T04:27:08.104Z,2.25
2022-08-24T04:29:34.786Z,2.00
2022-08-24T04:32:01.507Z,2.38
2022-08-24T04:34:29.182Z,2.10
2022-08-24T04:36:57.704Z,2.28
2022-08-24T04:39:24.610Z,2.03
2022-08-24T04:42:06.971Z,1.90
2022-08-24T04:44:38.663Z,1.95
2022-08-24T04:47:05.522Z,2.05
2022-08-24T04:49:32.369Z,2.30
2022-08-24T04:51:59.113Z,1.95
2022-08-24T04:54:26.093Z,1.92
2022-08-24T04:57:05.022Z,2.17
2022-08-24T04:59:31.639Z,1.70
2022-08-24T05:01:58.327Z,1.92
2022-08-24T05:04:24.910Z,1.80
2022-08-24T05:06:53.084Z,1.67
2022-08-24T05:09:20.862Z,1.92
2022-08-24T05:11:49.971Z,1.98
2022-08-24T05:14:24.583Z,1.60
2022-08-24T05:16:55.087Z,1.52
2022-08-24T05:19:22.942Z,1.75
2022-08-24T05:21:49.568Z,1.75
2022-08-24T05:24:16.293Z,2.28
2022-08-24T05:26:42.938Z,2.65
2022-08-24T05:29:10.328Z,2.15
2022-08-24T05:31:44.803Z,1.70
2022-08-24T05:34:12.775Z,1.63
2022-08-24T05:36:40.753Z,1.90
2022-08-24T05:39:14.216Z,1.83
2022-08-24T05:41:46.227Z,1.90
2022-08-24T05:44:19.539Z,2.03
2022-08-24T05:46:46.835Z,2.50
2022-08-24T05:49:13.542Z,2.10
2022-08-24T05:51:40.645Z,1.58
2022-08-24T05:54:09.946Z,2.08
2022-08-24T05:56:48.482Z,1.95
2022-08-24T05:59:15.791Z,1.80
2022-08-24T06:01:45.344Z,2.05
2022-08-24T06:04:12.742Z,1.80
2022-08-24T06:06:39.711Z,2.10
2022-08-24T06:09:06.901Z,2.78
2022-08-24T06:11:38.692Z,2.13
2022-08-24T06:14:13.003Z,2.50
2022-08-24T06:16:51.822Z,2.88
2022-08-24T06:19:20.494Z,2.05
2022-08-24T06:21:49.903Z,1.83
2022-08-24T06:24:17.847Z,2.15
2022-08-24T06:26:49.888Z,2.53
2022-08-24T06:29:19.597Z,2.33
2022-08-24T06:31:54.606Z,2.30
2022-08-24T06:34:24.489Z,2.28
2022-08-24T06:36:52.983Z,1.80
2022-08-24T06:39:21.964Z,2.10
2022-08-24T06:41:51.374Z,2.33
2022-08-24T06:44:29.096Z,1.80
2022-08-24T06:47:05.564Z,1.92
2022-08-24T06:49:32.589Z,1.98
2022-08-24T06:51:59.165Z,2.25
2022-08-24T06:54:25.700Z,2.30
2022-08-24T06:56:52.598Z,2.55
2022-08-24T06:59:19.525Z,2.58
2022-08-24T07:01:46.231Z,2.13
2022-08-24T07:07:06.830Z,1.90
2022-08-24T07:09:33.605Z,2.00
2022-08-24T07:12:00.701Z,2.63
2022-08-24T07:14:28.926Z,2.22
2022-08-24T07:16:55.616Z,2.10
2022-08-24T07:19:23.391Z,1.90
2022-08-24T07:21:50.339Z,1.67
2022-08-24T07:24:17.129Z,1.90
2022-08-24T07:26:43.936Z,2.10
2022-08-24T07:29:30.653Z,1.77
2022-08-24T07:32:01.714Z,2.42
2022-08-24T07:34:37.269Z,2.00
2022-08-24T07:39:32.379Z,2.00
2022-08-24T07:42:20.825Z,2.20
2022-08-24T07:44:45.582Z,2.50
2022-08-24T07:47:37.155Z,1.70
2022-08-24T07:50:00.968Z,2.58
2022-08-24T07:52:27.746Z,2.38
2022-08-24T07:54:55.464Z,1.92
2022-08-24T07:57:22.059Z,1.90
2022-08-24T07:59:48.886Z,1.90
2022-08-24T08:02:18.509Z,1.75
2022-08-24T08:04:49.292Z,1.75
2022-08-24T08:07:17.442Z,2.10
2022-08-24T08:09:47.519Z,2.75
2022-08-24T08:12:14.279Z,2.17
2022-08-24T08:14:52.676Z,1.98
2022-08-24T08:17:19.991Z,1.63
2022-08-24T08:19:46.674Z,1.73
2022-08-24T08:22:14.337Z,2.00
2022-08-24T08:25:05.140Z,2.63
2022-08-24T08:29:58.522Z,1.50
2022-08-24T08:32:25.166Z,2.13
2022-08-24T08:34:51.821Z,1.60
2022-08-24T08:37:18.579Z,1.83
2022-08-24T08:39:45.478Z,1.85
2022-08-24T08:42:27.908Z,1.63
2022-08-24T08:45:23.071Z,2.20
2022-08-24T08:48:22.690Z,1.60
2022-08-24T08:50:58.044Z,1.80
2022-08-24T08:53:40.520Z,2.13
2022-08-24T08:56:23.720Z,2.35
2022-08-24T08:59:21.276Z,1.70
2022-08-24T09:02:06.088Z,1.90
2022-08-24T09:04:59.593Z,2.20
2022-08-24T09:07:47.792Z,2.10
2022-08-24T09:10:34.196Z,2.10
2022-08-24T09:13:12.566Z,2.80
2022-08-24T09:15:57.738Z,2.65
2022-08-24T09:18:54.630Z,2.47
2022-08-24T09:21:45.837Z,1.77
2022-08-24T09:24:39.239Z,2.13
2022-08-24T09:27:41.176Z,2.17
2022-08-24T09:30:10.649Z,2.05
2022-08-24T09:32:58.601Z,2.00
2022-08-24T09:35:53.256Z,2.00
2022-08-24T09:38:31.813Z,2.28
2022-08-24T09:41:10.235Z,2.28
2022-08-24T09:43:44.079Z,2.15
2022-08-24T09:46:37.289Z,1.90
2022-08-24T09:49:27.730Z,2.08
2022-08-24T09:52:11.725Z,1.65
2022-08-24T09:55:02.545Z,2.00
2022-08-24T09:58:00.931Z,1.42
2022-08-24T10:00:38.652Z,1.60
2022-08-24T10:03:36.228Z,1.67
2022-08-24T10:06:11.245Z,1.95
2022-08-24T10:09:13.588Z,2.15
2022-08-24T10:12:07.806Z,2.42
2022-08-24T10:15:08.639Z,1.50
2022-08-24T10:17:47.545Z,1.80
2022-08-24T10:20:25.402Z,1.45
2022-08-24T10:22:58.187Z,1.50
2022-08-24T10:25:35.923Z,1.83
2022-08-24T10:30:57.995Z,1.42
2022-08-24T10:34:01.827Z,1.52
2022-08-24T10:37:12.604Z,1.65
2022-08-24T10:40:09.412Z,1.50
2022-08-24T10:43:08.583Z,1.52
2022-08-24T10:45:56.684Z,1.42
2022-08-24T10:48:33.226Z,1.98
2022-08-24T10:51:29.163Z,1.63
2022-08-24T10:53:56.421Z,1.60
2022-08-24T10:56:40.056Z,1.63
2022-08-24T10:59:25.872Z,1.33
2022-08-24T11:02:00.884Z,1.70
2022-08-24T11:04:30.577Z,1.50
2022-08-24T11:07:15.340Z,1.73
2022-08-24T11:09:58.113Z,1.67
2022-08-24T11:12:37.116Z,1.10
2022-08-24T11:15:18.532Z,1.30
2022-08-24T11:18:03.418Z,2.05
2022-08-24T11:20:36.231Z,1.98
2022-08-24T11:23:09.587Z,1.80
2022-08-24T11:25:38.510Z,1.67
2022-08-24T11:28:24.189Z,1.92
2022-08-24T11:30:51.012Z,1.77
2022-08-24T11:33:32.701Z,1.50
2022-08-24T11:36:01.154Z,2.63
2022-08-24T11:38:31.203Z,2.30
2022-08-24T11:41:00.849Z,1.80
2022-08-24T11:43:36.283Z,1.92
2022-08-24T11:46:15.462Z,1.80
2022-08-24T11:48:49.169Z,2.00
2022-08-24T11:51:45.726Z,1.92
2022-08-24T11:54:23.211Z,1.87
2022-08-24T11:57:18.308Z,2.35
2022-08-24T11:59:50.705Z,2.03
2022-08-24T12:02:31.240Z,2.63
2022-08-24T12:05:03.711Z,2.38
2022-08-24T12:07:50.983Z,2.17
2022-08-24T12:10:48.351Z,1.83
2022-08-24T12:13:44.387Z,2.38
2022-08-24T12:16:29.925Z,1.95
2022-08-24T12:19:16.122Z,1.75
2022-08-24T12:21:46.593Z,1.73
2022-08-24T12:24:55.324Z,1.92
2022-08-24T12:27:26.959Z,1.70
2022-08-24T12:30:05.905Z,2.15
2022-08-24T12:32:38.355Z,1.70
2022-08-24T12:35:10.603Z,2.15
2022-08-24T12:38:11.717Z,1.95
2022-08-24T12:40:47.464Z,2.10
2022-08-24T12:43:30.893Z,2.00
2022-08-24T12:45:59.728Z,2.00
2022-08-24T12:48:37.188Z,1.77
2022-08-24T12:51:19.007Z,1.58
2022-08-24T12:53:57.475Z,1.70
2022-08-24T12:57:08.476Z,1.73
2022-08-24T12:59:45.559Z,1.80
2022-08-24T13:02:15.025Z,2.38
2022-08-24T13:04:50.256Z,1.90
2022-08-24T13:07:19.539Z,1.90
2022-08-24T13:09:53.721Z,1.80
2022-08-24T13:12:38.741Z,1.70
2022-08-24T13:15:31.613Z,1.50
2022-08-24T13:18:07.244Z,1.48
2022-08-24T13:20:36.778Z,1.48
2022-08-24T13:23:12.557Z,1.90
2022-08-24T13:25:47.978Z,1.70
2022-08-24T13:28:20.130Z,1.65
2022-08-24T13:30:55.874Z,1.67
2022-08-24T13:33:43.715Z,1.75
2022-08-24T13:36:40.552Z,1.80
2022-08-24T13:39:32.206Z,1.65
2022-08-24T13:42:23.571Z,1.77
2022-08-24T13:44:56.175Z,1.67
2022-08-24T13:47:51.766Z,1.70
2022-08-24T13:50:39.040Z,1.50
2022-08-24T13:53:47.580Z,1.88
2022-08-24T13:56:33.385Z,1.40
2022-08-24T13:59:02.889Z,1.70
2022-08-24T14:01:33.420Z,1.65
2022-08-24T14:04:21.355Z,1.70
2022-08-24T14:06:55.492Z,1.67
2022-08-24T14:09:22.068Z,1.75
2022-08-24T14:12:07.635Z,1.60
2022-08-24T14:14:46.448Z,1.70
2022-08-24T14:17:37.506Z,1.30
2022-08-24T14:20:49.958Z,1.60
2022-08-24T14:23:16.503Z,1.33
2022-08-24T14:25:44.613Z,1.50
2022-08-24T14:28:39.615Z,1.60
2022-08-24T14:31:16.732Z,1.50
2022-08-24T14:34:16.074Z,1.80
2022-08-24T14:36:57.261Z,1.45
2022-08-24T14:39:51.631Z,1.77
2022-08-24T14:42:32.213Z,1.00
2022-08-24T14:45:05.910Z,1.73
2022-08-24T14:48:00.059Z,1.52
2022-08-24T14:50:41.036Z,1.20
2022-08-24T14:53:20.268Z,1.38
2022-08-24T14:56:05.239Z,1.25
2022-08-24T14:58:56.990Z,1.08
2022-08-24T15:01:29.236Z,1.35
2022-08-24T15:04:10.869Z,1.58
2022-08-24T15:06:55.979Z,1.27
2022-08-24T15:09:32.474Z,1.35
2022-08-24T15:12:13.211Z,1.42
2022-08-24T15:14:55.350Z,1.15
2022-08-24T15:17:29.583Z,1.17
2022-08-24T15:20:01.901Z,1.38
2022-08-24T15:22:40.393Z,1.45
2022-08-24T15:25:19.163Z,0.98
2022-08-24T15:27:55.753Z,1.15
2022-08-24T15:30:30.105Z,1.40
2022-08-24T15:33:05.635Z,1.20
2022-08-24T15:35:38.933Z,1.10
2022-08-24T15:38:25.175Z,0.98
2022-08-24T15:41:04.208Z,1.25
2022-08-24T15:43:32.032Z,1.30
2022-08-24T15:45:59.034Z,1.70
2022-08-24T15:48:26.615Z,1.00
2022-08-24T15:50:55.159Z,1.15
2022-08-24T15:53:41.617Z,1.00
2022-08-24T15:56:20.568Z,1.40
2022-08-24T15:58:49.176Z,1.10
2022-08-24T16:01:15.635Z,0.90
2022-08-24T16:03:42.214Z,0.93
2022-08-24T16:06:23.511Z,1.20
2022-08-24T16:09:01.907Z,1.85
2022-08-24T16:11:38.590Z,1.20
2022-08-24T16:14:23.511Z,1.60
2022-08-24T16:16:50.284Z,1.20
2022-08-24T16:19:31.812Z,1.10
2022-08-24T16:22:09.917Z,1.40
2022-08-24T16:24:39.835Z,1.10
2022-08-24T16:27:15.646Z,1.15
2022-08-24T16:29:47.820Z,1.25
2022-08-24T16:32:39.197Z,1.23
2022-08-24T16:35:20.159Z,1.00
2022-08-24T16:37:46.794Z,1.25
2022-08-24T16:40:13.453Z,1.08
2022-08-24T16:42:40.288Z,1.35
2022-08-24T16:45:09.894Z,0.80
2022-08-24T16:47:36.632Z,0.80
2022-08-24T16:50:05.118Z,0.90
2022-08-24T16:52:31.713Z,0.90
2022-08-24T16:54:58.292Z,1.40
2022-08-24T16:57:29.227Z,0.95
2022-08-24T16:59:56.672Z,1.02
2022-08-24T17:02:24.061Z,0.80
2022-08-24T17:04:50.622Z,0.88
2022-08-24T17:07:22.256Z,1.08
2022-08-24T17:09:48.943Z,0.82
2022-08-24T17:12:15.545Z,1.10
2022-08-24T17:14:42.382Z,1.10
2022-08-24T17:17:13.045Z,1.03
2022-08-24T17:19:40.260Z,1.20
2022-08-24T17:22:16.147Z,1.40
2022-08-24T17:24:43.516Z,0.80
2022-08-24T17:27:10.702Z,1.08
2022-08-24T17:29:37.266Z,1.00
2022-08-24T17:32:04.153Z,0.80
2022-08-24T17:34:31.025Z,0.90
2022-08-24T17:37:00.200Z,0.90
2022-08-24T17:39:27.064Z,1.15
2022-08-24T17:41:56.423Z,0.77
2022-08-24T17:44:26.257Z,0.93
2022-08-24T17:46:55.861Z,0.93
2022-08-24T17:49:22.722Z,0.88
2022-08-24T17:51:50.382Z,1.00
2022-08-24T17:54:18.216Z,0.90
2022-08-24T17:59:14.002Z,0.90
2022-08-24T18:01:40.645Z,0.90
2022-08-24T18:04:07.254Z,0.75
2022-08-24T18:06:33.995Z,0.93
2022-08-24T18:09:04.315Z,0.95
2022-08-24T18:11:31.061Z,0.82
2022-08-24T18:13:57.651Z,0.90
2022-08-24T18:16:25.590Z,1.05
2022-08-24T18:21:19.321Z,1.10
2022-08-24T18:23:46.904Z,1.25
2022-08-24T18:26:19.005Z,1.05
2022-08-24T18:28:45.559Z,0.82
2022-08-24T18:31:15.340Z,1.02
2022-08-24T18:33:42.240Z,1.00
2022-08-24T18:36:08.881Z,0.98
2022-08-24T18:38:35.492Z,1.05
2022-08-24T18:41:02.350Z,1.75
2022-08-24T18:43:29.172Z,1.30
2022-08-24T18:45:55.924Z,1.20
2022-08-24T18:48:23.000Z,1.13
2022-08-24T18:50:51.277Z,1.02
2022-08-24T18:53:18.328Z,1.20
2022-08-24T18:55:45.203Z,1.50
2022-08-24T18:58:11.952Z,1.55
2022-08-24T19:00:40.075Z,1.35
2022-08-24T19:03:08.631Z,1.30
2022-08-24T19:05:35.589Z,0.90
2022-08-24T19:08:02.263Z,1.17
2022-08-24T19:10:33.325Z,1.00
2022-08-24T19:13:02.589Z,1.40
2022-08-24T19:15:39.095Z,1.13
2022-08-24T19:18:10.628Z,0.90
2022-08-24T19:20:44.731Z,1.50
2022-08-24T19:23:20.129Z,1.17
2022-08-24T19:25:47.415Z,1.23
2022-08-24T19:28:14.862Z,1.33
2022-08-24T19:30:41.579Z,1.42
2022-08-24T19:33:11.901Z,1.40
2022-08-24T19:35:41.023Z,1.15
2022-08-24T19:38:07.969Z,1.20
2022-08-24T19:40:34.658Z,1.15
2022-08-24T19:43:02.703Z,1.38
2022-08-24T19:45:30.588Z,1.58
2022-08-24T19:47:57.208Z,1.40
2022-08-24T19:50:27.237Z,1.48
2022-08-24T19:52:55.832Z,1.23
2022-08-24T19:55:22.516Z,1.42
2022-08-24T19:57:54.532Z,1.30
2022-08-24T20:00:25.113Z,1.50
2022-08-24T20:02:55.016Z,2.28
2022-08-24T20:05:24.039Z,1.40
2022-08-24T20:07:51.235Z,1.27
2022-08-24T20:10:20.744Z,1.40
2022-08-24T20:12:47.459Z,1.27
2022-08-24T20:15:14.139Z,1.45
2022-08-24T20:17:41.261Z,1.30
2022-08-24T20:20:09.417Z,1.20
2022-08-24T20:22:36.006Z,1.17
2022-08-24T20:25:02.694Z,0.93
2022-08-24T20:27:29.619Z,1.20
2022-08-24T20:29:56.182Z,1.10
2022-08-24T20:32:22.900Z,1.10
2022-08-24T20:34:49.642Z,0.98
2022-08-24T20:37:22.068Z,1.50
2022-08-24T20:39:48.884Z,1.50
2022-08-24T20:42:19.410Z,1.65
2022-08-24T20:44:47.886Z,1.30
2022-08-24T20:47:15.228Z,1.25
2022-08-24T20:49:42.209Z,1.30
2022-08-24T20:52:09.229Z,1.40
2022-08-24T20:54:39.710Z,1.77
2022-08-24T20:57:08.754Z,1.50
2022-08-24T20:59:35.393Z,1.60
2022-08-24T21:02:03.110Z,1.73
2022-08-24T21:04:29.811Z,2.28
2022-08-24T21:06:56.618Z,1.98
2022-08-24T21:09:23.507Z,2.00
2022-08-24T21:11:50.195Z,2.20
2022-08-24T21:14:17.287Z,2.25
2022-08-24T21:16:44.227Z,2.15
2022-08-24T21:19:13.015Z,2.42
2022-08-24T21:21:42.415Z,2.20
2022-08-24T21:24:09.851Z,2.13
2022-08-24T21:26:36.955Z,1.53
2022-08-24T21:29:06.348Z,1.50
2022-08-24T21:31:33.910Z,1.40
2022-08-24T21:34:00.713Z,1.40
2022-08-24T21:36:27.868Z,1.52
2022-08-24T21:38:54.997Z,1.67
2022-08-24T21:41:22.510Z,1.50
2022-08-24T21:43:49.217Z,1.95
2022-08-24T21:46:16.250Z,1.58
2022-08-24T21:48:42.867Z,1.83
2022-08-24T21:51:09.718Z,1.80
2022-08-24T21:53:36.248Z,2.00
2022-08-24T21:56:03.123Z,1.80
2022-08-24T21:58:29.702Z,2.28
2022-08-24T22:00:58.997Z,2.38
2022-08-24T22:03:26.369Z,2.20
2022-08-24T22:05:58.780Z,1.65
2022-08-24T22:08:25.955Z,2.75
2022-08-24T22:10:54.752Z,1.95
2022-08-24T22:13:21.499Z,2.67
2022-08-24T22:15:48.096Z,2.05
2022-08-24T22:18:14.660Z,2.10
2022-08-24T22:20:41.260Z,2.03
2022-08-24T22:23:07.969Z,2.22
2022-08-24T22:25:34.757Z,2.05
2022-08-24T22:28:01.343Z,2.10
2022-08-24T22:30:27.980Z,2.38
2022-08-24T22:32:54.519Z,2.20
2022-08-24T22:35:21.271Z,2.33
2022-08-24T22:37:47.938Z,2.33
2022-08-24T22:40:14.765Z,3.15
2022-08-24T22:42:44.020Z,2.30
2022-08-24T22:45:10.913Z,2.47
2022-08-24T22:47:38.248Z,1.88
2022-08-24T22:50:05.614Z,2.25
2022-08-24T22:52:32.317Z,2.08
2022-08-24T22:54:58.986Z,2.35
2022-08-24T22:57:25.952Z,2.00
2022-08-24T22:59:53.917Z,1.88
2022-08-24T23:02:21.009Z,2.42
2022-08-24T23:04:50.997Z,2.97
2022-08-24T23:07:18.704Z,2.30
2022-08-24T23:09:46.461Z,2.58
2022-08-24T23:12:17.969Z,2.42
2022-08-24T23:14:44.823Z,2.72
2022-08-24T23:17:11.892Z,2.80
2022-08-24T23:19:38.569Z,2.42
2022-08-24T23:22:06.615Z,2.70
2022-08-24T23:27:02.134Z,2.38
2022-08-24T23:29:28.825Z,2.05
2022-08-24T23:31:55.545Z,2.85
2022-08-24T23:34:22.789Z,2.40
2022-08-24T23:36:50.156Z,2.40
2022-08-24T23:39:18.275Z,2.58
2022-08-24T23:41:46.375Z,2.25
2022-08-24T23:46:41.493Z,2.53
2022-08-24T23:49:08.615Z,2.40
2022-08-24T23:51:35.930Z,2.20
2022-08-24T23:54:03.072Z,3.10
2022-08-24T23:56:32.159Z,2.72
2022-08-24T23:59:03.706Z,3.05
